Time;durP1;ratioP1;P1;durP2;ratioP2;P2;SDS_P1;SDS_P2;PMS_P1;PMS_P2;Temp;Humidity;BMP_temperature;BMP_pressure;BME280_temperature;BME280_humidity;BME280_pressure;Samples;Min_cycle;Max_cycle;Signal;HPM_P1;HPM_P2
2022/10/05 00:01:20;;;;;;;;;;;15.20;99.90;;;;;;5105581;28;19932;-57
2022/10/05 00:03:47;;;;;;;;;;;15.20;99.90;;;;;;5107365;28;19935;-57
2022/10/05 00:06:15;;;;;;;;;;;15.20;99.90;;;;;;5105712;28;19947;-56
2022/10/05 00:08:43;;;;;;;;;;;15.20;99.90;;;;;;5105396;27;19924;-57
2022/10/05 00:11:12;;;;;;;;;;;15.10;99.90;;;;;;5107527;28;19938;-57
2022/10/05 00:13:40;;;;;;;;;;;15.10;99.90;;;;;;5109144;28;19950;-56
2022/10/05 00:16:10;;;;;;;;;;;15.10;99.90;;;;;;5108615;28;20406;-57
2022/10/05 00:18:38;;;;;;;;;;;15.10;99.90;;;;;;5107621;28;19924;-57
2022/10/05 00:21:31;;;;;;;;;;;15.10;99.90;;;;;;5105951;28;19946;-56
2022/10/05 00:23:59;;;;;;;;;;;15.10;99.90;;;;;;5084219;28;20482;-56
2022/10/05 00:26:31;;;;;;;;;;;15.10;99.90;;;;;;5107772;28;19923;-56
2022/10/05 00:29:00;;;;;;;;;;;15.10;99.90;;;;;;5105802;28;19950;-56
2022/10/05 00:31:30;;;;;;;;;;;15.20;99.90;;;;;;5107681;28;19931;-56
2022/10/05 00:33:58;;;;;;;;;;;15.10;99.90;;;;;;5107282;28;19934;-56
2022/10/05 00:36:25;;;;;;;;;;;15.10;99.90;;;;;;5108868;28;19931;-58
2022/10/05 00:38:53;;;;;;;;;;;15.20;99.90;;;;;;5084118;28;20287;-56
2022/10/05 00:41:25;;;;;;;;;;;15.20;99.90;;;;;;5105718;28;20283;-56
2022/10/05 00:44:11;;;;;;;;;;;15.20;99.90;;;;;;5089391;28;19924;-56
2022/10/05 00:46:44;;;;;;;;;;;15.20;99.90;;;;;;5103437;28;19928;-57
2022/10/05 00:49:21;;;;;;;;;;;15.20;99.90;;;;;;5106341;28;19928;-56
2022/10/05 00:51:57;;;;;;;;;;;15.20;99.90;;;;;;5107376;28;19924;-56
2022/10/05 00:54:41;;;;;;;;;;;15.30;99.90;;;;;;5105647;28;20118;-56
2022/10/05 00:57:21;;;;;;;;;;;15.30;99.90;;;;;;5105615;28;20557;-56
2022/10/05 01:00:08;;;;;;;;;;;15.30;99.90;;;;;;5113310;28;19924;-55
2022/10/05 01:02:41;;;;;;;;;;;15.20;99.90;;;;;;5086332;28;19927;-56
2022/10/05 01:05:12;;;;;;;;;;;15.30;99.90;;;;;;5112703;28;19934;-56
2022/10/05 01:07:39;;;;;;;;;;;15.30;99.90;;;;;;5104489;28;19928;-55
2022/10/05 01:10:09;;;;;;;;;;;15.30;99.90;;;;;;5088019;28;19935;-56
2022/10/05 01:12:49;;;;;;;;;;;15.30;99.90;;;;;;5086952;28;19928;-55
2022/10/05 01:15:49;;;;;;;;;;;15.30;99.90;;;;;;5107009;28;19924;-56
2022/10/05 01:18:24;;;;;;;;;;;15.30;99.90;;;;;;5051305;28;19923;-55
2022/10/05 01:21:05;;;;;;;;;;;15.30;99.90;;;;;;5107266;28;20299;-56
2022/10/05 01:23:49;;;;;;;;;;;15.30;99.90;;;;;;5105692;28;20298;-56
2022/10/05 01:26:31;;;;;;;;;;;15.30;99.90;;;;;;5087787;28;19924;-56
2022/10/05 01:29:08;;;;;;;;;;;15.30;99.90;;;;;;5106368;28;19935;-55
2022/10/05 01:31:55;;;;;;;;;;;15.30;99.90;;;;;;5105600;28;19930;-56
2022/10/05 01:34:24;;;;;;;;;;;15.30;99.90;;;;;;5113248;28;19931;-55
2022/10/05 01:37:00;;;;;;;;;;;15.30;99.90;;;;;;5095110;28;19924;-55
2022/10/05 01:39:37;;;;;;;;;;;15.40;99.90;;;;;;5102816;28;19930;-55
2022/10/05 01:42:10;;;;;;;;;;;15.30;99.90;;;;;;5112702;28;20398;-56
2022/10/05 01:44:51;;;;;;;;;;;15.30;99.90;;;;;;5103424;28;19951;-56
2022/10/05 01:47:37;;;;;;;;;;;15.40;99.90;;;;;;5093661;28;19931;-55
2022/10/05 01:50:10;;;;;;;;;;;15.40;99.90;;;;;;5099090;28;20338;-55
2022/10/05 01:52:46;;;;;;;;;;;15.40;99.90;;;;;;5113891;28;19924;-55
2022/10/05 01:55:18;;;;;;;;;;;15.40;99.90;;;;;;5113511;28;19924;-55
2022/10/05 01:58:01;;;;;;;;;;;15.40;99.90;;;;;;5094464;28;19947;-56
2022/10/05 02:00:31;;;;;;;;;;;15.30;99.90;;;;;;5095413;28;19924;-56
2022/10/05 02:03:02;;;;;;;;;;;15.30;99.90;;;;;;5095165;28;19924;-57
2022/10/05 02:05:48;;;;;;;;;;;15.30;99.90;;;;;;5113397;28;20286;-56
2022/10/05 02:08:20;;;;;;;;;;;15.20;99.90;;;;;;5095370;28;20497;-57
2022/10/05 02:10:51;;;;;;;;;;;15.20;99.90;;;;;;5075562;28;19932;-56
2022/10/05 02:13:39;;;;;;;;;;;15.20;99.90;;;;;;5075885;28;19931;-57
2022/10/05 02:16:08;;;;;;;;;;;15.20;99.90;;;;;;5092974;28;19931;-55
2022/10/05 02:18:39;;;;;;;;;;;15.20;99.90;;;;;;5096767;27;19947;-55
2022/10/05 02:21:08;;;;;;;;;;;15.20;99.90;;;;;;5095897;28;20376;-55
2022/10/05 02:23:36;;;;;;;;;;;15.10;99.90;;;;;;5114185;28;19924;-55
2022/10/05 02:26:05;;;;;;;;;;;15.20;99.90;;;;;;5095678;28;19931;-55
2022/10/05 02:28:35;;;;;;;;;;;15.20;99.90;;;;;;5095935;28;19924;-55
2022/10/05 02:31:12;;;;;;;;;;;15.20;99.90;;;;;;5096000;28;19924;-55
2022/10/05 02:33:39;;;;;;;;;;;15.20;99.90;;;;;;5114317;28;19931;-54
2022/10/05 02:36:14;;;;;;;;;;;15.30;99.90;;;;;;5094148;28;19928;-56
2022/10/05 02:39:03;;;;;;;;;;;15.30;99.90;;;;;;5094770;28;19923;-55
2022/10/05 02:41:39;;;;;;;;;;;15.30;99.90;;;;;;5095044;28;19935;-55
2022/10/05 02:44:07;;;;;;;;;;;15.80;99.90;;;;;;5095333;28;19924;-56
2022/10/05 02:46:40;;;;;;;;;;;15.20;99.90;;;;;;5093775;28;19931;-56
2022/10/05 02:49:35;;;;;;;;;;;15.20;99.90;;;;;;5078815;28;19924;-56
2022/10/05 02:52:19;;;;;;;;;;;15.20;99.90;;;;;;5057088;28;19923;-56
2022/10/05 02:55:05;;;;;;;;;;;15.20;99.90;;;;;;5095598;28;19930;-56
2022/10/05 02:57:38;;;;;;;;;;;15.20;99.90;;;;;;5095605;28;19924;-56
2022/10/05 03:00:12;;;;;;;;;;;15.20;99.90;;;;;;5110045;28;20402;-56
2022/10/05 03:02:42;;;;;;;;;;;15.30;99.90;;;;;;5112312;28;19931;-56
2022/10/05 03:05:30;;;;;;;;;;;15.30;99.90;;;;;;5094771;28;20390;-56
2022/10/05 03:08:03;;;;;;;;;;;15.30;99.90;;;;;;5092139;28;20302;-56
2022/10/05 03:10:53;;;;;;;;;;;15.30;99.90;;;;;;5094286;28;19930;-56
2022/10/05 03:13:21;;;;;;;;;;;15.40;99.90;;;;;;5095072;28;19924;-56
2022/10/05 03:15:54;;;;;;;;;;;15.40;99.90;;;;;;5095014;28;20386;-56
2022/10/05 03:18:30;;;;;;;;;;;15.40;99.90;;;;;;5096281;27;20267;-56
2022/10/05 03:21:07;;;;;;;;;;;15.40;99.90;;;;;;5101743;28;20557;-55
2022/10/05 03:23:50;;;;;;;;;;;15.40;99.90;;;;;;5094145;28;19923;-56
2022/10/05 03:26:24;;;;;;;;;;;15.50;99.90;;;;;;5093528;28;19924;-56
2022/10/05 03:28:58;;;;;;;;;;;15.50;99.90;;;;;;5112738;28;19924;-56
2022/10/05 03:31:41;;;;;;;;;;;15.50;99.90;;;;;;5093715;28;19930;-56
2022/10/05 03:34:17;;;;;;;;;;;15.50;99.90;;;;;;5093776;28;19924;-55
2022/10/05 03:36:59;;;;;;;;;;;15.50;99.90;;;;;;5111826;28;19924;-56
2022/10/05 03:39:46;;;;;;;;;;;15.60;99.90;;;;;;5093607;28;20308;-56
2022/10/05 03:42:21;;;;;;;;;;;15.60;99.90;;;;;;5094781;28;20298;-55
2022/10/05 03:44:52;;;;;;;;;;;15.60;99.90;;;;;;5094875;28;20427;-55
2022/10/05 03:47:26;;;;;;;;;;;15.60;99.90;;;;;;5093524;28;19924;-56
2022/10/05 03:50:03;;;;;;;;;;;15.60;99.90;;;;;;5076734;28;19924;-56
2022/10/05 03:52:41;;;;;;;;;;;15.60;99.90;;;;;;5092562;28;20318;-56
2022/10/05 03:55:16;;;;;;;;;;;15.60;99.90;;;;;;5094269;28;19924;-55
2022/10/05 03:57:44;;;;;;;;;;;15.60;99.90;;;;;;5111769;28;20390;-56
2022/10/05 04:00:13;;;;;;;;;;;15.60;99.90;;;;;;5093433;28;19928;-56
2022/10/05 04:02:51;;;;;;;;;;;15.60;99.90;;;;;;5077252;28;20402;-56
2022/10/05 04:05:21;;;;;;;;;;;15.60;99.90;;;;;;5092643;28;19938;-56
2022/10/05 04:07:49;;;;;;;;;;;15.60;99.90;;;;;;5093222;28;20314;-56
2022/10/05 04:10:22;;;;;;;;;;;15.60;99.90;;;;;;5092692;28;19924;-56
2022/10/05 04:12:56;;;;;;;;;;;15.60;99.90;;;;;;5111300;28;19924;-56
2022/10/05 04:15:28;;;;;;;;;;;15.60;99.90;;;;;;5112462;28;19924;-56
2022/10/05 04:17:59;;;;;;;;;;;15.60;99.90;;;;;;5094129;28;19938;-56
2022/10/05 04:20:47;;;;;;;;;;;15.60;99.90;;;;;;5123871;28;19931;-56
2022/10/05 04:23:15;;;;;;;;;;;15.60;99.90;;;;;;5076971;28;19923;-56
2022/10/05 04:25:45;;;;;;;;;;;15.60;99.90;;;;;;5094340;28;19931;-56
2022/10/05 04:28:17;;;;;;;;;;;15.60;99.90;;;;;;5077556;28;19931;-56
2022/10/05 04:30:47;;;;;;;;;;;15.50;99.90;;;;;;5094176;28;19923;-56
2022/10/05 04:33:15;;;;;;;;;;;15.50;99.90;;;;;;5094198;28;19931;-56
2022/10/05 04:35:54;;;;;;;;;;;15.60;99.90;;;;;;5073759;28;20325;-56
2022/10/05 04:38:24;;;;;;;;;;;15.60;99.90;;;;;;5073819;28;19928;-56
2022/10/05 04:41:01;;;;;;;;;;;15.60;99.90;;;;;;5087247;28;19931;-56
2022/10/05 04:43:32;;;;;;;;;;;15.50;99.90;;;;;;5094357;28;19924;-56
2022/10/05 04:46:06;;;;;;;;;;;15.40;99.90;;;;;;5113040;28;19924;-55
2022/10/05 04:48:45;;;;;;;;;;;15.40;99.90;;;;;;5083686;28;19924;-55
2022/10/05 04:51:23;;;;;;;;;;;15.40;99.90;;;;;;5090464;28;20327;-55
2022/10/05 04:54:02;;;;;;;;;;;15.30;99.90;;;;;;5089573;28;20421;-55
2022/10/05 04:56:49;;;;;;;;;;;15.30;99.90;;;;;;5090288;28;19935;-55
2022/10/05 04:59:32;;;;;;;;;;;15.30;99.90;;;;;;5090465;28;19924;-55
2022/10/05 05:02:00;;;;;;;;;;;15.20;99.90;;;;;;5087354;28;20786;-55
2022/10/05 05:04:43;;;;;;;;;;;15.30;99.90;;;;;;5071159;28;19935;-55
2022/10/05 05:07:38;;;;;;;;;;;15.30;99.90;;;;;;5092171;27;19935;-55
2022/10/05 05:10:24;;;;;;;;;;;15.30;99.90;;;;;;5111338;27;19924;-55
2022/10/05 05:12:55;;;;;;;;;;;15.30;99.90;;;;;;5124083;27;19924;-55
2022/10/05 05:15:41;;;;;;;;;;;15.20;99.90;;;;;;5073639;28;20446;-55
2022/10/05 05:18:32;;;;;;;;;;;15.20;99.90;;;;;;5072663;28;19924;-55
2022/10/05 05:21:07;;;;;;;;;;;15.30;99.90;;;;;;5070104;28;20295;-55
2022/10/05 05:23:34;;;;;;;;;;;15.20;99.90;;;;;;5120166;27;19945;-56
2022/10/05 05:26:10;;;;;;;;;;;15.20;99.90;;;;;;5131614;27;19927;-55
2022/10/05 05:28:49;;;;;;;;;;;15.30;99.90;;;;;;5098040;28;19924;-55
2022/10/05 05:31:29;;;;;;;;;;;15.30;99.90;;;;;;5091106;28;19936;-55
2022/10/05 05:34:17;;;;;;;;;;;15.30;99.90;;;;;;5078467;28;19928;-55
2022/10/05 05:36:45;;;;;;;;;;;15.30;99.90;;;;;;5071564;28;20315;-55
2022/10/05 05:39:25;;;;;;;;;;;15.30;99.90;;;;;;5060245;28;19932;-55
2022/10/05 05:41:54;;;;;;;;;;;15.30;99.90;;;;;;5092410;28;19931;-55
2022/10/05 05:44:21;;;;;;;;;;;15.20;99.90;;;;;;5112046;27;19931;-55
2022/10/05 05:46:56;;;;;;;;;;;15.20;99.90;;;;;;5089297;28;20291;-55
2022/10/05 05:49:38;;;;;;;;;;;15.20;99.90;;;;;;5089559;28;19923;-55
2022/10/05 05:52:18;;;;;;;;;;;15.20;99.90;;;;;;5089587;28;19923;-55
2022/10/05 05:55:23;;;;;;;;;;;15.30;99.90;;;;;;5105003;28;20508;-55
2022/10/05 05:58:01;;;;;;;;;;;15.30;99.90;;;;;;4999004;28;19925;-55
2022/10/05 06:00:46;;;;;;;;;;;15.30;99.90;;;;;;5102100;28;19930;-55
2022/10/05 06:03:23;;;;;;;;;;;15.30;99.90;;;;;;5090205;28;19931;-55
2022/10/05 06:05:56;;;;;;;;;;;15.30;99.90;;;;;;5092022;28;19928;-55
2022/10/05 06:08:24;;;;;;;;;;;15.30;99.90;;;;;;5091072;28;20506;-55
2022/10/05 06:11:10;;;;;;;;;;;15.40;99.90;;;;;;5090697;28;19924;-56
2022/10/05 06:13:39;;;;;;;;;;;15.40;99.90;;;;;;5092171;28;19923;-55
2022/10/05 06:16:11;;;;;;;;;;;15.40;99.90;;;;;;5083588;28;20174;-54
2022/10/05 06:18:42;;;;;;;;;;;15.40;99.90;;;;;;5091825;27;19930;-56
2022/10/05 06:21:14;;;;;;;;;;;15.40;99.90;;;;;;5065992;28;19924;-56
2022/10/05 06:23:46;;;;;;;;;;;15.40;99.90;;;;;;5081374;28;20292;-55
2022/10/05 06:26:29;;;;;;;;;;;15.40;99.90;;;;;;5089217;28;19924;-55
2022/10/05 06:28:59;;;;;;;;;;;15.40;99.90;;;;;;5091188;28;19935;-55
2022/10/05 06:31:39;;;;;;;;;;;15.50;99.90;;;;;;5110076;28;19946;-55
2022/10/05 06:34:22;;;;;;;;;;;15.40;99.90;;;;;;5068201;28;19998;-55
2022/10/05 06:36:51;;;;;;;;;;;15.40;99.90;;;;;;5085767;28;19924;-55
2022/10/05 06:39:19;;;;;;;;;;;15.40;99.90;;;;;;5089340;28;19924;-55
2022/10/05 06:42:05;;;;;;;;;;;15.50;99.90;;;;;;5102337;28;19934;-55
2022/10/05 06:45:15;;;;;;;;;;;15.50;99.90;;;;;;5103510;28;19935;-55
2022/10/05 06:47:57;;;;;;;;;;;15.50;99.90;;;;;;5079304;28;19930;-55
2022/10/05 06:50:51;;;;;;;;;;;15.50;99.90;;;;;;5074293;28;19924;-56
2022/10/05 06:53:35;;;;;;;;;;;15.50;99.90;;;;;;5075119;28;20302;-56
2022/10/05 06:56:08;;;;;;;;;;;15.60;99.90;;;;;;5083215;28;19930;-56
2022/10/05 06:58:43;;;;;;;;;;;15.60;99.90;;;;;;5088353;28;19928;-56
2022/10/05 07:01:11;;;;;;;;;;;15.60;99.90;;;;;;5088534;28;20401;-56
2022/10/05 07:03:39;;;;;;;;;;;15.50;99.90;;;;;;5094430;28;19924;-56
2022/10/05 07:06:10;;;;;;;;;;;15.60;99.90;;;;;;5089059;28;19924;-56
2022/10/05 07:08:38;;;;;;;;;;;15.60;99.90;;;;;;5067074;28;19924;-54
2022/10/05 07:11:18;;;;;;;;;;;15.60;99.90;;;;;;5089483;28;19923;-54
2022/10/05 07:13:50;;;;;;;;;;;15.60;99.90;;;;;;5089782;28;19928;-55
2022/10/05 07:16:27;;;;;;;;;;;15.60;99.90;;;;;;5073032;28;19938;-55
2022/10/05 07:18:55;;;;;;;;;;;15.60;99.90;;;;;;5091910;27;20366;-55
2022/10/05 07:21:38;;;;;;;;;;;15.60;99.90;;;;;;5093731;28;19935;-55
2022/10/05 07:24:28;;;;;;;;;;;15.70;99.90;;;;;;5083327;28;19928;-55
2022/10/05 07:27:01;;;;;;;;;;;15.70;99.90;;;;;;5079486;28;20371;-55
2022/10/05 07:29:55;;;;;;;;;;;15.70;99.90;;;;;;5075653;28;19923;-54
2022/10/05 07:32:41;;;;;;;;;;;15.70;99.90;;;;;;5070779;28;19935;-55
2022/10/05 07:38:17;;;;;;;;;;;15.50;99.90;;;;;;5071779;28;19924;-55
2022/10/05 07:41:21;;;;;;;;;;;15.50;99.90;;;;;;5071320;28;19924;-55
2022/10/05 07:44:08;;;;;;;;;;;15.40;99.90;;;;;;5050448;27;19928;-55
2022/10/05 07:46:59;;;;;;;;;;;15.30;99.90;;;;;;5098137;28;19924;-55
2022/10/05 07:49:31;;;;;;;;;;;15.30;99.90;;;;;;5101107;27;19923;-55
2022/10/05 07:52:00;;;;;;;;;;;15.30;99.90;;;;;;5111666;27;19932;-54
2022/10/05 07:54:40;;;;;;;;;;;15.20;99.90;;;;;;5080613;28;19935;-55
2022/10/05 07:57:13;;;;;;;;;;;15.20;99.90;;;;;;5089492;28;19934;-55
2022/10/05 07:59:44;;;;;;;;;;;15.20;99.90;;;;;;5071123;28;19928;-55
2022/10/05 08:02:19;;;;;;;;;;;15.20;99.90;;;;;;5071169;28;19947;-55
2022/10/05 08:04:59;;;;;;;;;;;15.20;99.90;;;;;;5126245;27;19923;-55
2022/10/05 08:07:28;;;;;;;;;;;15.10;99.90;;;;;;5127001;27;19923;-55
2022/10/05 08:10:04;;;;;;;;;;;15.10;99.90;;;;;;5091013;28;19935;-55
2022/10/05 08:12:52;;;;;;;;;;;15.20;99.90;;;;;;5088490;28;20497;-55
2022/10/05 08:15:21;;;;;;;;;;;15.10;99.90;;;;;;5089162;28;20269;-55
2022/10/05 08:17:54;;;;;;;;;;;15.20;99.90;;;;;;5094752;28;19930;-56
2022/10/05 08:20:28;;;;;;;;;;;15.20;99.90;;;;;;5127815;28;19931;-55
2022/10/05 08:23:01;;;;;;;;;;;15.20;99.90;;;;;;5128983;28;19927;-56
2022/10/05 08:25:43;;;;;;;;;;;15.20;99.90;;;;;;5089541;28;19924;-56
2022/10/05 08:28:25;;;;;;;;;;;15.20;99.90;;;;;;5097140;28;19924;-55
2022/10/05 08:31:08;;;;;;;;;;;15.30;99.90;;;;;;5109168;28;19924;-55
2022/10/05 08:33:59;;;;;;;;;;;15.30;99.90;;;;;;5117343;28;19928;-55
2022/10/05 08:36:42;;;;;;;;;;;15.20;99.90;;;;;;5111071;27;19927;-55
2022/10/05 08:39:15;;;;;;;;;;;15.30;99.90;;;;;;5099801;28;19927;-55
2022/10/05 08:41:46;;;;;;;;;;;15.20;99.90;;;;;;5092765;28;19924;-56
2022/10/05 08:44:29;;;;;;;;;;;15.30;99.90;;;;;;5106015;28;19927;-55
2022/10/05 08:47:12;;;;;;;;;;;15.30;99.90;;;;;;5113056;28;19947;-55
2022/10/05 08:49:51;;;;;;;;;;;15.30;99.90;;;;;;5106695;27;19923;-55
2022/10/05 08:52:29;;;;;;;;;;;15.30;99.90;;;;;;5133448;27;19928;-56
2022/10/05 08:55:08;;;;;;;;;;;15.10;99.90;;;;;;5090024;28;19924;-55
2022/10/05 08:57:51;;;;;;;;;;;15.00;99.90;;;;;;5112879;28;20702;-55
2022/10/05 09:00:31;;;;;;;;;;;14.80;99.90;;;;;;5112696;28;19924;-55
2022/10/05 09:03:01;;;;;;;;;;;14.50;99.90;;;;;;5097828;27;19923;-55
2022/10/05 09:05:35;;;;;;;;;;;14.40;99.90;;;;;;5120827;27;19924;-55
2022/10/05 09:08:20;;;;;;;;;;;14.20;99.90;;;;;;5111773;28;19932;-55
2022/10/05 09:11:09;;;;;;;;;;;14.00;99.90;;;;;;5092045;28;19935;-55
2022/10/05 09:13:43;;;;;;;;;;;13.80;99.90;;;;;;5074212;27;19923;-55
2022/10/05 09:16:20;;;;;;;;;;;13.70;99.90;;;;;;5133029;27;20500;-55
2022/10/05 09:18:48;;;;;;;;;;;13.60;99.90;;;;;;5105227;27;19934;-55
2022/10/05 09:21:22;;;;;;;;;;;13.50;99.90;;;;;;5132596;27;20370;-55
2022/10/05 09:23:59;;;;;;;;;;;13.40;99.90;;;;;;5125151;27;19928;-55
2022/10/05 09:26:38;;;;;;;;;;;13.30;99.90;;;;;;5073646;28;19924;-55
2022/10/05 09:29:24;;;;;;;;;;;13.20;99.90;;;;;;5108005;27;19931;-56
2022/10/05 09:32:07;;;;;;;;;;;13.10;99.90;;;;;;5093779;28;19942;-55
2022/10/05 09:34:54;;;;;;;;;;;13.00;99.90;;;;;;5129379;27;19928;-56
2022/10/05 09:37:27;;;;;;;;;;;13.00;99.90;;;;;;5130957;27;20387;-55
2022/10/05 09:40:30;;;;;;;;;;;13.10;99.90;;;;;;5100215;28;19928;-55
2022/10/05 09:43:16;;;;;;;;;;;13.10;99.90;;;;;;5011722;28;19925;-55
2022/10/05 09:46:10;;;;;;;;;;;13.10;99.90;;;;;;5125795;27;19927;-56
2022/10/05 09:48:56;;;;;;;;;;;13.10;99.90;;;;;;5104679;27;19931;-55
2022/10/05 09:51:24;;;;;;;;;;;13.00;99.90;;;;;;5126703;27;19935;-55
2022/10/05 09:53:57;;;;;;;;;;;12.90;99.90;;;;;;5075922;28;20299;-55
2022/10/05 09:56:28;;;;;;;;;;;12.90;99.90;;;;;;5091895;28;19924;-56
2022/10/05 09:58:58;;;;;;;;;;;12.90;99.90;;;;;;5084552;28;20014;-55
2022/10/05 10:01:45;;;;;;;;;;;12.90;99.90;;;;;;5090791;28;20288;-55
2022/10/05 10:04:21;;;;;;;;;;;12.90;99.90;;;;;;5100648;28;19942;-55
2022/10/05 10:07:07;;;;;;;;;;;12.90;99.90;;;;;;5109525;28;19923;-55
2022/10/05 10:09:49;;;;;;;;;;;13.00;99.90;;;;;;5104562;28;19951;-54
2022/10/05 10:12:29;;;;;;;;;;;12.90;99.90;;;;;;5091211;28;19947;-55
2022/10/05 10:15:00;;;;;;;;;;;12.90;99.90;;;;;;5110709;27;19923;-55
2022/10/05 10:17:52;;;;;;;;;;;12.80;99.90;;;;;;5116982;27;19924;-55
2022/10/05 10:20:22;;;;;;;;;;;12.80;99.90;;;;;;5126141;27;19938;-55
2022/10/05 10:22:56;;;;;;;;;;;12.70;99.90;;;;;;5091073;27;19930;-55
2022/10/05 10:25:42;;;;;;;;;;;12.60;99.90;;;;;;5088313;28;19924;-56
2022/10/05 10:28:21;;;;;;;;;;;13.60;99.90;;;;;;5092756;28;20029;-55
2022/10/05 10:30:57;;;;;;;;;;;12.60;99.90;;;;;;5111276;28;19957;-55
2022/10/05 10:33:27;;;;;;;;;;;12.50;99.90;;;;;;5111337;27;19923;-56
2022/10/05 10:35:58;;;;;;;;;;;12.50;99.90;;;;;;5081451;28;19931;-56
2022/10/05 10:38:43;;;;;;;;;;;12.40;99.90;;;;;;5101472;28;19924;-56
2022/10/05 10:41:17;;;;;;;;;;;12.40;99.90;;;;;;5091414;28;19935;-55
2022/10/05 10:43:44;;;;;;;;;;;12.40;99.90;;;;;;5098915;28;19924;-55
2022/10/05 10:46:12;;;;;;;;;;;12.30;99.90;;;;;;5108219;28;19928;-55
2022/10/05 10:48:39;;;;;;;;;;;12.40;99.90;;;;;;5088616;27;19923;-55
2022/10/05 10:51:07;;;;;;;;;;;12.40;99.90;;;;;;5131263;27;19927;-55
2022/10/05 10:53:34;;;;;;;;;;;12.30;99.90;;;;;;5115433;27;19927;-55
2022/10/05 10:56:12;;;;;;;;;;;12.30;99.90;;;;;;5100229;27;20367;-56
2022/10/05 10:58:45;;;;;;;;;;;12.30;99.90;;;;;;5107922;28;19931;-55
2022/10/05 11:01:22;;;;;;;;;;;12.30;99.90;;;;;;5109854;28;19924;-55
2022/10/05 11:04:04;;;;;;;;;;;12.20;99.90;;;;;;5109767;28;19931;-56
2022/10/05 11:06:31;;;;;;;;;;;12.20;99.90;;;;;;5110054;28;19931;-56
2022/10/05 11:09:11;;;;;;;;;;;12.20;99.90;;;;;;5110357;28;19930;-55
2022/10/05 11:11:50;;;;;;;;;;;12.10;99.90;;;;;;5096976;28;19930;-55
2022/10/05 11:14:25;;;;;;;;;;;12.10;99.90;;;;;;5112748;27;20074;-56
2022/10/05 11:16:58;;;;;;;;;;;12.10;99.90;;;;;;5092522;28;20186;-56
2022/10/05 11:19:32;;;;;;;;;;;12.10;99.90;;;;;;5128511;27;19932;-56
2022/10/05 11:22:19;;;;;;;;;;;12.10;99.90;;;;;;5097007;27;19917;-56
2022/10/05 11:25:00;;;;;;;;;;;12.10;99.90;;;;;;5120846;28;20040;-56
2022/10/05 11:27:44;;;;;;;;;;;12.20;99.90;;;;;;5097753;28;19931;-56
2022/10/05 11:30:30;;;;;;;;;;;12.20;99.90;;;;;;5106487;28;19924;-56
2022/10/05 11:33:16;;;;;;;;;;;12.30;99.90;;;;;;5107236;28;19924;-56
2022/10/05 11:35:57;;;;;;;;;;;12.40;99.90;;;;;;5110100;28;19924;-56
2022/10/05 11:38:39;;;;;;;;;;;12.30;99.90;;;;;;5104841;28;19928;-55
2022/10/05 11:41:26;;;;;;;;;;;12.40;99.90;;;;;;5104365;28;19924;-56
2022/10/05 11:44:12;;;;;;;;;;;12.40;99.90;;;;;;5104755;28;20437;-56
2022/10/05 11:46:44;;;;;;;;;;;12.40;99.90;;;;;;5126484;28;20268;-56
2022/10/05 11:49:24;;;;;;;;;;;12.50;99.90;;;;;;5117860;28;20500;-56
2022/10/05 11:51:54;;;;;;;;;;;12.40;99.90;;;;;;5112648;28;20387;-56
2022/10/05 11:54:22;;;;;;;;;;;12.40;99.90;;;;;;5110324;28;19935;-56
2022/10/05 11:56:58;;;;;;;;;;;12.40;99.90;;;;;;5085713;28;19924;-55
2022/10/05 11:59:42;;;;;;;;;;;12.40;99.90;;;;;;5099541;28;20384;-56
2022/10/05 12:02:13;;;;;;;;;;;12.30;99.90;;;;;;5085237;28;19932;-56
2022/10/05 12:04:45;;;;;;;;;;;12.30;99.90;;;;;;5101070;28;19924;-55
2022/10/05 12:07:31;;;;;;;;;;;12.20;99.90;;;;;;5105638;28;19924;-56
2022/10/05 12:10:16;;;;;;;;;;;12.30;99.90;;;;;;5101989;28;19925;-56
2022/10/05 12:12:50;;;;;;;;;;;12.30;99.90;;;;;;5087618;28;19925;-56
2022/10/05 12:15:22;;;;;;;;;;;12.30;99.90;;;;;;5083745;28;19931;-56
2022/10/05 12:18:07;;;;;;;;;;;12.30;99.90;;;;;;5089291;28;20411;-56
2022/10/05 12:20:39;;;;;;;;;;;12.30;99.90;;;;;;5122231;28;19931;-56
2022/10/05 12:23:13;;;;;;;;;;;12.40;99.90;;;;;;5089453;28;19924;-56
2022/10/05 12:25:47;;;;;;;;;;;12.40;99.90;;;;;;5089239;28;19932;-56
2022/10/05 12:28:17;;;;;;;;;;;12.40;99.90;;;;;;5102012;28;19935;-56
2022/10/05 12:30:59;;;;;;;;;;;12.40;99.90;;;;;;5090802;28;20003;-56
2022/10/05 12:33:39;;;;;;;;;;;12.40;99.90;;;;;;5094414;28;19930;-56
2022/10/05 12:36:12;;;;;;;;;;;12.30;99.90;;;;;;5110870;28;19935;-56
2022/10/05 12:38:54;;;;;;;;;;;12.40;99.90;;;;;;5099624;28;19928;-56
2022/10/05 12:41:25;;;;;;;;;;;12.40;99.90;;;;;;5090313;28;19947;-57
2022/10/05 12:44:11;;;;;;;;;;;12.40;99.90;;;;;;5100054;28;19924;-57
2022/10/05 12:46:39;;;;;;;;;;;12.30;99.90;;;;;;5076666;28;19931;-56
2022/10/05 12:49:16;;;;;;;;;;;12.40;99.90;;;;;;5097235;28;19930;-56
2022/10/05 12:51:58;;;;;;;;;;;12.30;99.90;;;;;;5110305;28;19928;-56
2022/10/05 12:54:40;;;;;;;;;;;12.40;99.90;;;;;;5108594;28;20397;-56
2022/10/05 12:57:26;;;;;;;;;;;12.40;99.90;;;;;;5078817;28;20340;-57
2022/10/05 13:00:01;;;;;;;;;;;12.40;99.90;;;;;;5069633;28;19939;-56
2022/10/05 13:02:49;;;;;;;;;;;12.40;99.90;;;;;;5071515;28;19932;-56
2022/10/05 13:05:28;;;;;;;;;;;12.50;99.90;;;;;;5071552;28;19924;-56
2022/10/05 13:07:55;;;;;;;;;;;12.60;99.90;;;;;;5090888;28;19924;-56
2022/10/05 13:10:29;;;;;;;;;;;12.70;99.90;;;;;;5111207;28;19928;-56
2022/10/05 13:12:59;;;;;;;;;;;12.80;99.90;;;;;;5107897;28;19932;-56
2022/10/05 13:15:26;;;;;;;;;;;12.80;99.90;;;;;;5091130;28;20291;-57
2022/10/05 13:18:20;;;;;;;;;;;12.80;99.90;;;;;;5089277;28;19924;-56
2022/10/05 13:20:56;;;;;;;;;;;12.90;99.90;;;;;;5070359;28;19928;-57
2022/10/05 13:23:39;;;;;;;;;;;12.90;99.90;;;;;;5073157;28;19935;-56
2022/10/05 13:26:07;;;;;;;;;;;12.90;99.90;;;;;;5069615;28;19925;-57
2022/10/05 13:28:37;;;;;;;;;;;13.00;99.90;;;;;;5082644;28;19924;-56
2022/10/05 13:31:11;;;;;;;;;;;13.00;99.90;;;;;;5090440;28;19924;-57
2022/10/05 13:33:57;;;;;;;;;;;13.00;99.90;;;;;;5081751;28;20410;-56
2022/10/05 13:36:37;;;;;;;;;;;13.00;99.90;;;;;;5069156;28;19924;-57
2022/10/05 13:39:13;;;;;;;;;;;13.00;99.90;;;;;;5085798;28;19928;-57
2022/10/05 13:41:53;;;;;;;;;;;13.00;99.90;;;;;;5090300;28;20501;-57
2022/10/05 13:44:39;;;;;;;;;;;13.10;99.90;;;;;;5101634;28;19931;-57
2022/10/05 13:47:19;;;;;;;;;;;13.10;99.90;;;;;;5105280;28;19928;-57
2022/10/05 13:49:54;;;;;;;;;;;13.50;99.90;;;;;;5081739;28;19932;-57
2022/10/05 13:52:28;;;;;;;;;;;13.50;99.90;;;;;;5069188;28;19932;-57
2022/10/05 13:55:05;;;;;;;;;;;13.70;99.90;;;;;;5104167;28;19930;-57
2022/10/05 13:57:43;;;;;;;;;;;13.80;99.90;;;;;;5106448;28;19927;-57
2022/10/05 14:00:13;;;;;;;;;;;14.00;99.90;;;;;;5089912;28;19931;-57
2022/10/05 14:02:42;;;;;;;;;;;14.10;99.90;;;;;;5089988;28;19931;-57
2022/10/05 14:05:18;;;;;;;;;;;14.10;99.90;;;;;;5074318;28;19924;-56
2022/10/05 14:07:53;;;;;;;;;;;14.30;99.90;;;;;;5069768;28;19925;-56
2022/10/05 14:10:33;;;;;;;;;;;14.40;99.90;;;;;;5088105;28;19939;-57
2022/10/05 14:13:01;;;;;;;;;;;14.40;99.90;;;;;;5071429;28;20303;-57
2022/10/05 14:15:31;;;;;;;;;;;14.40;99.90;;;;;;5110397;28;19935;-56
2022/10/05 14:17:59;;;;;;;;;;;14.50;99.90;;;;;;5104111;28;19924;-57
2022/10/05 14:20:27;;;;;;;;;;;14.30;99.90;;;;;;5087659;28;19932;-56
2022/10/05 14:23:00;;;;;;;;;;;14.20;99.90;;;;;;5068529;28;20419;-56
2022/10/05 14:25:28;;;;;;;;;;;14.10;99.90;;;;;;5100321;28;19924;-56
2022/10/05 14:28:23;;;;;;;;;;;13.90;99.90;;;;;;5089299;28;19932;-56
2022/10/05 14:31:00;;;;;;;;;;;13.90;99.90;;;;;;5068934;28;19924;-56
2022/10/05 14:33:34;;;;;;;;;;;13.70;99.90;;;;;;5073076;28;19950;-56
2022/10/05 14:36:02;;;;;;;;;;;13.70;99.90;;;;;;5080194;28;19925;-56
2022/10/05 14:38:48;;;;;;;;;;;13.70;99.90;;;;;;5088882;28;19924;-56
2022/10/05 14:41:20;;;;;;;;;;;13.60;99.90;;;;;;5076480;28;19925;-56
2022/10/05 14:44:19;;;;;;;;;;;13.50;99.90;;;;;;5082045;28;19924;-57
2022/10/05 14:46:52;;;;;;;;;;;13.40;99.90;;;;;;5069075;28;19925;-57
2022/10/05 14:49:26;;;;;;;;;;;13.30;99.90;;;;;;5095243;28;19923;-57
2022/10/05 14:51:55;;;;;;;;;;;13.30;99.90;;;;;;5051932;28;19931;-56
2022/10/05 14:54:31;;;;;;;;;;;13.30;99.90;;;;;;5077860;28;20398;-56
2022/10/05 14:57:05;;;;;;;;;;;13.30;99.90;;;;;;5069052;28;19925;-57
2022/10/05 14:59:49;;;;;;;;;;;13.30;99.90;;;;;;5070380;28;19947;-56
2022/10/05 15:02:35;;;;;;;;;;;13.30;99.90;;;;;;5078395;28;19925;-56
2022/10/05 15:05:32;;;;;;;;;;;13.20;99.90;;;;;;5096775;28;19929;-56
2022/10/05 15:08:18;;;;;;;;;;;13.10;99.90;;;;;;5076483;28;20379;-56
2022/10/05 15:10:45;;;;;;;;;;;13.00;99.90;;;;;;5086340;28;20189;-57
2022/10/05 15:13:15;;;;;;;;;;;13.00;99.90;;;;;;5069201;28;19928;-56
2022/10/05 15:15:42;;;;;;;;;;;13.00;99.90;;;;;;5071706;28;20376;-57